Time;durP1;ratioP1;P1;durP2;ratioP2;P2;SDS_P1;SDS_P2;PMS_P1;PMS_P2;Temp;Humidity;BMP_temperature;BMP_pressure;BME280_temperature;BME280_humidity;BME280_pressure;Samples;Min_cycle;Max_cycle;Signal;HPM_P1;HPM_P2
2024/03/19 00:00:20;;;;;;;24.30;8.30;;;;;;;11.16;100.00;96403.91;5035227;28;20211;-71
2024/03/19 00:02:47;;;;;;;19.77;7.63;;;;;;;11.10;100.00;96409.06;5035033;28;20572;-71
2024/03/19 00:05:14;;;;;;;19.53;7.60;;;;;;;11.13;100.00;96398.94;5034308;28;20243;-71
2024/03/19 00:07:40;;;;;;;18.80;7.93;;;;;;;11.18;100.00;96407.16;5034122;28;20487;-71
2024/03/19 00:10:08;;;;;;;21.50;7.50;;;;;;;11.43;100.00;96400.69;5035052;28;20205;-71
2024/03/19 00:12:34;;;;;;;21.30;7.73;;;;;;;11.29;100.00;96398.84;5034851;28;20655;-71
2024/03/19 00:15:01;;;;;;;21.27;7.63;;;;;;;11.43;100.00;96399.88;5034518;28;20954;-71
2024/03/19 00:17:29;;;;;;;20.30;7.90;;;;;;;11.55;100.00;96401.94;5034186;28;20224;-71
2024/03/19 00:19:55;;;;;;;21.37;7.70;;;;;;;11.43;100.00;96400.69;5034262;28;20201;-72
2024/03/19 00:22:23;;;;;;;18.33;7.00;;;;;;;11.33;100.00;96400.13;5034062;28;20853;-71
2024/03/19 00:24:49;;;;;;;19.63;7.60;;;;;;;11.46;100.00;96389.78;5035105;28;20221;-71
2024/03/19 00:27:16;;;;;;;18.43;7.20;;;;;;;11.46;100.00;96400.34;5035406;28;20473;-71
2024/03/19 00:29:42;;;;;;;20.90;7.83;;;;;;;11.43;100.00;96392.78;5038158;28;20374;-71
2024/03/19 00:32:09;;;;;;;21.37;7.83;;;;;;;11.35;100.00;96392.84;5037684;28;20236;-71
2024/03/19 00:34:37;;;;;;;20.53;7.87;;;;;;;11.51;100.00;96390.09;5038582;28;20800;-71
2024/03/19 00:37:04;;;;;;;21.03;8.87;;;;;;;11.41;100.00;96393.97;5036767;28;21056;-71
2024/03/19 00:39:31;;;;;;;21.30;7.80;;;;;;;11.56;100.00;96396.47;5037896;28;20197;-71
2024/03/19 00:41:58;;;;;;;20.67;7.73;;;;;;;11.34;100.00;96391.22;5038657;28;20646;-71
2024/03/19 00:44:25;;;;;;;24.03;8.07;;;;;;;11.19;100.00;96397.44;5037930;28;20204;-71
2024/03/19 00:46:51;;;;;;;19.57;7.33;;;;;;;11.21;100.00;96398.88;5036432;28;21092;-71
2024/03/19 00:49:18;;;;;;;23.03;8.27;;;;;;;11.35;100.00;96389.38;5038419;28;20197;-71
2024/03/19 00:51:46;;;;;;;20.93;7.63;;;;;;;11.55;100.00;96389.53;5038095;28;20201;-71
2024/03/19 00:54:12;;;;;;;22.57;8.17;;;;;;;11.42;100.00;96393.78;5037535;28;20209;-71
2024/03/19 00:56:39;;;;;;;23.53;7.80;;;;;;;11.17;100.00;96389.69;5037911;28;20338;-71
2024/03/19 00:59:05;;;;;;;22.67;8.30;;;;;;;11.03;100.00;96392.28;5038499;28;20210;-72
2024/03/19 01:01:33;;;;;;;24.40;8.50;;;;;;;11.40;100.00;96387.84;5037747;28;20214;-72
2024/03/19 01:03:59;;;;;;;21.63;8.13;;;;;;;11.27;100.00;96384.19;5038194;28;20201;-72
2024/03/19 01:06:26;;;;;;;23.47;8.73;;;;;;;11.33;100.00;96381.66;5037788;28;20243;-71
2024/03/19 01:08:54;;;;;;;23.83;8.50;;;;;;;11.57;100.00;96381.47;5037681;28;20634;-72
2024/03/19 01:11:20;;;;;;;20.87;7.37;;;;;;;11.42;100.00;96387.66;5037638;28;20585;-72
2024/03/19 01:13:47;;;;;;;22.47;8.80;;;;;;;11.38;100.00;96392.50;5037357;28;20208;-72
2024/03/19 01:16:13;;;;;;;28.37;8.93;;;;;;;11.20;100.00;96384.06;5037011;28;20397;-72
2024/03/19 01:18:40;;;;;;;24.23;8.97;;;;;;;11.16;100.00;96384.59;5038070;28;20624;-72
2024/03/19 01:21:07;;;;;;;21.03;8.17;;;;;;;11.42;100.00;96377.94;5037836;28;20622;-72
2024/03/19 01:23:34;;;;;;;27.97;9.53;;;;;;;11.39;100.00;96378.31;5038830;28;20209;-72
2024/03/19 01:26:03;;;;;;;21.50;7.43;;;;;;;11.56;100.00;96375.34;5037504;28;20225;-72
2024/03/19 01:28:29;;;;;;;24.93;8.93;;;;;;;11.37;100.00;96371.56;5037294;28;20217;-72
2024/03/19 01:30:56;;;;;;;23.70;8.10;;;;;;;11.24;100.00;96366.06;5037022;28;20380;-72
2024/03/19 01:33:22;;;;;;;25.10;8.60;;;;;;;11.48;100.00;96369.31;5037355;28;20255;-72
2024/03/19 01:35:49;;;;;;;19.33;8.20;;;;;;;11.42;100.00;96367.41;5038563;28;20201;-72
2024/03/19 01:38:15;;;;;;;25.63;8.17;;;;;;;11.07;100.00;96365.41;5035818;28;20230;-72
2024/03/19 01:40:46;;;;;;;22.60;8.73;;;;;;;11.52;100.00;96365.34;5037269;28;20580;-72
2024/03/19 01:43:15;;;;;;;21.47;7.87;;;;;;;11.57;100.00;96373.56;5037259;28;20594;-71
2024/03/19 01:45:42;;;;;;;20.80;7.27;;;;;;;11.39;100.00;96373.03;5038263;28;20232;-71
2024/03/19 01:48:10;;;;;;;20.30;7.77;;;;;;;11.19;100.00;96369.25;5037172;28;20239;-71
2024/03/19 01:50:38;;;;;;;20.90;7.53;;;;;;;11.55;100.00;96372.09;5037000;28;20564;-71
2024/03/19 01:53:04;;;;;;;19.37;7.57;;;;;;;11.75;100.00;96368.75;5036999;28;20690;-71
2024/03/19 01:55:32;;;;;;;24.07;8.97;;;;;;;11.68;100.00;96373.09;5037232;28;20198;-71
2024/03/19 01:58:00;;;;;;;21.93;8.20;;;;;;;11.72;100.00;96375.22;5035784;28;20224;-71
2024/03/19 02:00:27;;;;;;;25.10;8.30;;;;;;;12.07;100.00;96368.41;5036805;28;20239;-71
2024/03/19 02:02:54;;;;;;;23.40;8.40;;;;;;;11.61;100.00;96372.19;5036901;28;20282;-71
2024/03/19 02:05:20;;;;;;;23.03;8.40;;;;;;;11.83;100.00;96373.94;5036803;28;20248;-71
2024/03/19 02:07:47;;;;;;;21.60;7.77;;;;;;;11.99;100.00;96371.13;5035792;28;20863;-71
2024/03/19 02:10:13;;;;;;;22.87;8.50;;;;;;;11.80;100.00;96371.66;5036597;28;20202;-71
2024/03/19 02:12:40;;;;;;;22.53;8.33;;;;;;;11.92;100.00;96371.03;5036523;28;20671;-71
2024/03/19 02:15:07;;;;;;;23.33;8.10;;;;;;;11.74;100.00;96382.94;5036362;28;20204;-71
2024/03/19 02:17:35;;;;;;;26.03;8.47;;;;;;;11.73;100.00;96374.19;5036421;28;20740;-72
2024/03/19 02:20:12;;;;;;;24.63;9.50;;;;;;;11.50;100.00;96377.91;5036825;28;20255;-71
2024/03/19 02:22:40;;;;;;;23.43;8.63;;;;;;;11.81;100.00;96363.56;5036517;28;20209;-71
2024/03/19 02:25:08;;;;;;;20.93;8.10;;;;;;;11.73;100.00;96362.81;5036561;28;20511;-71
2024/03/19 02:27:34;;;;;;;25.40;9.33;;;;;;;11.50;100.00;96355.97;5036005;28;20225;-71
2024/03/19 02:30:01;;;;;;;24.03;9.00;;;;;;;11.64;100.00;96366.56;5036152;28;20201;-72
2024/03/19 02:32:27;;;;;;;23.53;8.07;;;;;;;11.63;100.00;96363.09;5036146;28;20409;-71
2024/03/19 02:34:54;;;;;;;22.50;8.33;;;;;;;11.72;100.00;96363.81;5036341;28;20217;-72
2024/03/19 02:37:21;;;;;;;22.43;7.43;;;;;;;11.75;100.00;96360.84;5034959;28;20225;-71
2024/03/19 02:39:48;;;;;;;25.70;9.40;;;;;;;11.88;100.00;96355.75;5036492;28;20208;-71
2024/03/19 02:42:15;;;;;;;23.83;8.13;;;;;;;11.54;100.00;96359.91;5037116;28;20205;-71
2024/03/19 02:44:42;;;;;;;18.50;7.63;;;;;;;11.57;100.00;96361.16;5036000;28;20234;-72
2024/03/19 02:47:08;;;;;;;20.90;8.50;;;;;;;11.50;100.00;96359.44;5034631;28;20984;-71
2024/03/19 02:49:35;;;;;;;23.77;8.40;;;;;;;11.57;100.00;96355.09;5037500;28;20201;-71
2024/03/19 02:52:01;;;;;;;20.60;8.17;;;;;;;11.54;100.00;96359.91;5035468;28;20197;-71
2024/03/19 02:54:28;;;;;;;19.57;8.13;;;;;;;11.68;100.00;96358.09;5036008;28;20201;-71
2024/03/19 02:56:56;;;;;;;19.30;7.37;;;;;;;11.81;100.00;96360.94;5036019;28;20223;-71
2024/03/19 02:59:22;;;;;;;24.20;8.50;;;;;;;11.67;100.00;96363.53;5036139;28;20200;-71
2024/03/19 03:01:49;;;;;;;22.23;9.07;;;;;;;11.62;100.00;96361.44;5035766;28;20205;-71
2024/03/19 03:04:15;;;;;;;24.53;8.57;;;;;;;11.51;100.00;96365.50;5036215;28;20205;-71
2024/03/19 03:09:22;;;;;;;23.10;8.60;;;;;;;11.97;100.00;96362.56;4989918;28;20587;-71
2024/03/19 03:11:49;;;;;;;26.47;9.63;;;;;;;11.68;100.00;96367.81;4990033;28;20218;-71
2024/03/19 03:14:15;;;;;;;19.87;7.33;;;;;;;11.71;100.00;96368.28;4990582;28;20206;-71
2024/03/19 03:16:41;;;;;;;24.90;8.93;;;;;;;11.50;100.00;96369.19;4990244;28;20206;-71
2024/03/19 03:19:08;;;;;;;22.83;8.33;;;;;;;11.64;100.00;96363.91;4990979;28;21424;-71
2024/03/19 03:21:34;;;;;;;21.83;8.53;;;;;;;11.61;100.00;96361.63;4990599;28;20206;-71
2024/03/19 03:24:01;;;;;;;24.53;9.07;;;;;;;11.52;100.00;96364.53;4990576;28;20416;-71
2024/03/19 03:26:29;;;;;;;26.07;9.07;;;;;;;11.55;100.00;96367.63;4991111;28;20203;-71
2024/03/19 03:28:55;;;;;;;22.47;8.67;;;;;;;11.49;100.00;96373.59;4991128;28;20227;-71
2024/03/19 03:31:22;;;;;;;23.57;8.13;;;;;;;11.58;100.00;96377.81;4991194;28;20680;-71
2024/03/19 03:33:48;;;;;;;24.00;8.67;;;;;;;11.68;100.00;96371.31;4990601;28;20203;-71
2024/03/19 03:36:15;;;;;;;26.10;8.97;;;;;;;11.44;100.00;96378.56;4990072;28;20218;-71
2024/03/19 03:38:41;;;;;;;21.90;8.07;;;;;;;11.70;100.00;96371.94;4991928;28;20701;-71
2024/03/19 03:41:08;;;;;;;21.93;8.53;;;;;;;11.32;100.00;96377.38;4990539;28;20199;-71
2024/03/19 03:43:36;;;;;;;23.70;8.53;;;;;;;11.36;100.00;96376.00;4990839;28;20218;-72
2024/03/19 03:46:02;;;;;;;20.13;8.83;;;;;;;11.45;100.00;96374.94;4989856;28;20462;-72
2024/03/19 03:48:29;;;;;;;24.67;8.73;;;;;;;11.29;100.00;96376.91;4991119;28;20604;-72
2024/03/19 03:50:55;;;;;;;25.77;8.40;;;;;;;11.36;100.00;96378.66;4990538;28;20235;-72
2024/03/19 03:53:22;;;;;;;23.73;8.47;;;;;;;11.27;100.00;96382.34;4991262;28;20207;-71
2024/03/19 03:55:49;;;;;;;29.40;10.03;;;;;;;11.17;100.00;96384.41;4989610;28;20214;-71
2024/03/19 03:58:15;;;;;;;25.03;8.57;;;;;;;11.32;100.00;96392.38;4990506;28;20300;-71
2024/03/19 04:00:46;;;;;;;20.67;7.93;;;;;;;11.69;100.00;96385.31;4990843;28;20638;-72
2024/03/19 04:03:13;;;;;;;26.03;8.60;;;;;;;11.43;100.00;96384.03;4990473;28;20218;-71
2024/03/19 04:05:40;;;;;;;25.80;9.00;;;;;;;11.47;100.00;96387.94;4990058;28;20207;-71
2024/03/19 04:08:07;;;;;;;28.37;9.43;;;;;;;11.59;100.00;96384.75;4988970;28;20227;-71
2024/03/19 04:10:33;;;;;;;18.30;7.33;;;;;;;11.62;100.00;96392.28;4990475;28;20556;-72
2024/03/19 04:13:00;;;;;;;24.53;9.10;;;;;;;11.62;100.00;96389.66;4990647;28;20206;-72
2024/03/19 04:15:26;;;;;;;24.47;8.57;;;;;;;11.49;100.00;96399.16;4990297;28;20624;-72
2024/03/19 04:17:54;;;;;;;22.33;8.33;;;;;;;11.51;100.00;96392.75;4989314;28;20336;-72
2024/03/19 04:20:21;;;;;;;24.00;8.67;;;;;;;11.57;100.00;96397.31;4978481;28;20207;-72
2024/03/19 04:22:47;;;;;;;21.47;8.20;;;;;;;11.38;100.00;96392.50;4976553;28;20207;-72
2024/03/19 04:25:15;;;;;;;26.93;8.00;;;;;;;11.63;100.00;96402.69;4977093;28;20207;-72
2024/03/19 04:27:41;;;;;;;22.03;8.37;;;;;;;11.63;100.00;96399.22;4976215;28;20220;-72
2024/03/19 04:30:08;;;;;;;22.97;8.83;;;;;;;11.68;100.00;96397.69;4977871;28;20207;-72
2024/03/19 04:32:35;;;;;;;21.90;8.63;;;;;;;11.57;100.00;96402.59;4977233;28;20204;-72
2024/03/19 04:35:03;;;;;;;21.93;8.27;;;;;;;11.84;100.00;96404.63;4977039;28;20203;-72
2024/03/19 04:37:30;;;;;;;23.07;7.70;;;;;;;11.66;100.00;96393.59;4976453;28;20772;-72
2024/03/19 04:39:56;;;;;;;21.93;8.27;;;;;;;11.46;100.00;96397.69;4977600;28;20211;-72
2024/03/19 04:42:23;;;;;;;26.17;9.17;;;;;;;11.52;100.00;96401.47;4977365;28;20207;-72
2024/03/19 04:44:49;;;;;;;23.80;8.13;;;;;;;11.57;100.00;96403.41;4977543;28;20341;-72
2024/03/19 04:47:19;;;;;;;23.63;8.20;;;;;;;11.68;100.00;96399.50;4976664;28;20258;-72
2024/03/19 04:49:45;;;;;;;27.43;9.40;;;;;;;11.65;100.00;96400.69;4977299;28;20199;-72
2024/03/19 04:52:13;;;;;;;25.53;8.27;;;;;;;11.82;100.00;96398.69;4977475;28;20207;-72
2024/03/19 04:54:40;;;;;;;22.50;8.53;;;;;;;11.68;100.00;96394.22;4976925;28;20691;-72
2024/03/19 04:57:07;;;;;;;23.17;8.80;;;;;;;11.64;100.00;96387.66;4976590;28;20223;-71
2024/03/19 04:59:34;;;;;;;24.73;8.70;;;;;;;11.67;100.00;96397.84;4976790;28;20223;-72
2024/03/19 05:02:00;;;;;;;20.90;7.90;;;;;;;11.59;100.00;96398.75;4977907;28;20226;-72
2024/03/19 05:04:27;;;;;;;23.83;7.20;;;;;;;11.60;100.00;96397.75;4976675;28;20207;-71
2024/03/19 05:06:53;;;;;;;26.03;9.43;;;;;;;11.74;100.00;96394.31;4976736;28;20277;-72
2024/03/19 05:09:21;;;;;;;20.33;7.87;;;;;;;11.84;100.00;96394.06;4976554;28;21213;-72
2024/03/19 05:11:48;;;;;;;21.47;7.93;;;;;;;11.61;100.00;96393.31;4977870;28;20208;-72
2024/03/19 05:14:16;;;;;;;29.87;9.03;;;;;;;11.67;100.00;96397.84;4976669;28;20727;-72
2024/03/19 05:16:42;;;;;;;23.43;8.73;;;;;;;11.69;100.00;96401.97;4976470;28;20203;-72
2024/03/19 05:19:09;;;;;;;21.60;7.80;;;;;;;11.65;100.00;96402.50;4976872;28;20242;-72
2024/03/19 05:21:35;;;;;;;29.50;9.30;;;;;;;11.58;100.00;96399.78;4976667;28;20284;-72
2024/03/19 05:24:02;;;;;;;24.47;9.03;;;;;;;11.53;100.00;96406.56;4977367;28;20203;-72
2024/03/19 05:26:30;;;;;;;28.40;9.13;;;;;;;11.74;100.00;96407.53;4976238;28;20203;-72
2024/03/19 05:28:56;;;;;;;27.33;9.13;;;;;;;11.53;100.00;96396.00;4976194;28;20202;-73
2024/03/19 05:31:24;;;;;;;23.83;9.27;;;;;;;11.43;100.00;96402.50;4974501;28;20214;-73
2024/03/19 05:33:51;;;;;;;23.87;8.27;;;;;;;11.36;100.00;96405.03;4975676;28;20624;-72
2024/03/19 05:36:18;;;;;;;25.43;9.33;;;;;;;11.56;100.00;96403.59;4975558;28;20214;-72
2024/03/19 05:38:44;;;;;;;26.67;9.10;;;;;;;11.55;100.00;96404.56;4975784;28;20228;-72
2024/03/19 05:41:11;;;;;;;25.03;8.70;;;;;;;11.62;100.00;96408.13;4976470;28;20211;-72
2024/03/19 05:43:38;;;;;;;24.97;8.53;;;;;;;11.50;100.00;96416.69;4976193;28;20199;-73
2024/03/19 05:46:05;;;;;;;28.17;8.50;;;;;;;11.37;100.00;96406.69;4975382;28;20199;-72
2024/03/19 05:48:33;;;;;;;28.80;9.80;;;;;;;11.33;100.00;96415.94;4975090;28;20594;-72
2024/03/19 05:51:00;;;;;;;25.80;8.97;;;;;;;11.33;100.00;96421.22;4977131;28;20203;-72
2024/03/19 05:53:27;;;;;;;28.37;8.90;;;;;;;11.49;100.00;96426.34;4976262;28;20205;-72
2024/03/19 05:55:53;;;;;;;26.17;9.13;;;;;;;11.53;100.00;96427.66;4975827;28;20731;-72
2024/03/19 05:58:20;;;;;;;23.50;8.60;;;;;;;11.51;100.00;96428.84;4975750;28;20242;-72
2024/03/19 06:00:47;;;;;;;24.20;9.67;;;;;;;11.78;100.00;96426.47;4975985;28;20203;-72
2024/03/19 06:03:15;;;;;;;27.23;9.47;;;;;;;11.47;100.00;96428.38;4976245;28;20208;-72
2024/03/19 06:05:41;;;;;;;32.70;10.60;;;;;;;11.46;100.00;96433.84;4975339;28;20298;-73
2024/03/19 06:08:08;;;;;;;33.53;11.83;;;;;;;11.54;100.00;96429.31;4976163;28;20261;-73
2024/03/19 06:10:34;;;;;;;30.73;11.03;;;;;;;11.59;100.00;96426.97;4975980;28;20211;-72
2024/03/19 06:13:01;;;;;;;22.07;8.73;;;;;;;11.64;100.00;96429.91;4976491;28;20202;-72
2024/03/19 06:15:28;;;;;;;25.00;8.27;;;;;;;11.68;100.00;96423.25;4975298;28;20602;-72
2024/03/19 06:17:55;;;;;;;29.40;9.17;;;;;;;11.73;100.00;96431.47;4975354;28;20223;-72
2024/03/19 06:20:23;;;;;;;28.23;8.73;;;;;;;11.55;100.00;96425.69;4975199;28;20207;-73
2024/03/19 06:22:52;;;;;;;29.73;9.20;;;;;;;11.39;100.00;96427.59;4975530;28;20860;-73
2024/03/19 06:25:19;;;;;;;25.90;8.73;;;;;;;11.41;100.00;96438.81;4974727;28;20204;-73
2024/03/19 06:27:45;;;;;;;24.60;8.73;;;;;;;11.44;100.00;96438.44;4974802;28;20237;-72
2024/03/19 06:30:14;;;;;;;27.57;9.43;;;;;;;11.58;100.00;96430.59;4975486;28;20207;-72
2024/03/19 06:32:41;;;;;;;26.37;8.83;;;;;;;11.54;100.00;96439.88;4975366;28;20203;-72
2024/03/19 06:35:09;;;;;;;25.67;8.33;;;;;;;11.65;100.00;96444.75;4976240;28;20207;-72
2024/03/19 06:37:36;;;;;;;23.33;7.43;;;;;;;11.51;100.00;96442.88;4974590;28;20234;-72
2024/03/19 06:40:03;;;;;;;25.27;9.30;;;;;;;11.67;100.00;96442.72;4975699;28;20234;-72
2024/03/19 06:42:29;;;;;;;30.47;10.03;;;;;;;11.73;100.00;96449.94;4974372;28;20211;-73
2024/03/19 06:44:56;;;;;;;25.13;8.90;;;;;;;11.81;100.00;96447.22;4975121;28;20210;-73
2024/03/19 06:47:23;;;;;;;28.87;9.23;;;;;;;11.81;100.00;96447.22;4974298;28;20346;-73
2024/03/19 06:49:49;;;;;;;28.50;9.07;;;;;;;11.79;100.00;96449.25;4974818;28;20199;-72
2024/03/19 06:52:17;;;;;;;34.57;12.73;;;;;;;11.88;100.00;96443.69;4975060;28;20203;-72
2024/03/19 06:54:44;;;;;;;33.13;10.27;;;;;;;11.91;100.00;96450.44;4975691;28;20857;-73
2024/03/19 06:57:10;;;;;;;25.77;9.03;;;;;;;11.79;100.00;96455.31;4974845;28;20233;-73
2024/03/19 06:59:37;;;;;;;25.27;8.57;;;;;;;11.91;100.00;96458.34;4975121;28;20310;-72
2024/03/19 07:02:07;;;;;;;24.57;8.03;;;;;;;12.05;100.00;96457.56;4975832;28;20610;-73
2024/03/19 07:04:35;;;;;;;23.70;8.10;;;;;;;11.98;100.00;96464.56;4975003;28;20319;-72
2024/03/19 07:07:02;;;;;;;28.17;9.73;;;;;;;12.14;100.00;96461.75;4974059;28;20230;-72
2024/03/19 07:09:31;;;;;;;23.33;8.03;;;;;;;12.36;100.00;96453.75;4975671;28;20231;-72
2024/03/19 07:11:58;;;;;;;21.40;7.50;;;;;;;12.16;100.00;96465.06;4974503;28;20207;-72
2024/03/19 07:14:24;;;;;;;24.10;8.27;;;;;;;12.10;100.00;96466.56;4973306;28;20370;-73
2024/03/19 07:16:51;;;;;;;31.90;10.27;;;;;;;11.96;100.00;96456.00;4970984;28;20234;-73
2024/03/19 07:19:17;;;;;;;38.13;10.07;;;;;;;11.91;100.00;96466.28;4972914;28;20254;-73
2024/03/19 07:21:44;;;;;;;28.57;8.63;;;;;;;12.10;100.00;96461.28;4974046;28;20208;-73
2024/03/19 07:24:11;;;;;;;30.57;9.30;;;;;;;12.28;100.00;96472.31;4974900;28;20207;-72
2024/03/19 07:26:39;;;;;;;27.13;8.70;;;;;;;12.57;100.00;96452.00;4974256;28;20664;-72
2024/03/19 07:29:05;;;;;;;37.47;10.63;;;;;;;12.29;100.00;96466.84;4973931;28;20196;-73
2024/03/19 07:31:32;;;;;;;18.80;6.80;;;;;;;12.30;100.00;96465.84;4975706;28;20203;-73
2024/03/19 07:33:59;;;;;;;20.07;7.47;;;;;;;12.39;100.00;96469.25;4973642;28;20666;-73
2024/03/19 07:36:25;;;;;;;16.13;6.10;;;;;;;12.53;100.00;96461.31;4973617;28;20208;-73
2024/03/19 07:38:52;;;;;;;16.23;5.93;;;;;;;12.31;100.00;96467.50;4973443;28;20233;-73
2024/03/19 07:41:18;;;;;;;20.00;6.93;;;;;;;11.88;100.00;96467.44;4973618;28;20225;-72
2024/03/19 07:43:46;;;;;;;14.57;6.20;;;;;;;12.63;100.00;96461.03;4972802;28;20214;-74
2024/03/19 07:46:16;;;;;;;15.00;5.20;;;;;;;12.31;100.00;96477.25;4970491;28;20214;-76
2024/03/19 07:48:42;;;;;;;13.07;5.60;;;;;;;12.64;100.00;96473.22;4973034;28;20230;-73
2024/03/19 07:51:09;;;;;;;17.10;6.43;;;;;;;12.70;100.00;96477.78;4973638;28;20217;-73
2024/03/19 07:53:35;;;;;;;14.17;5.80;;;;;;;13.04;100.00;96466.44;4973272;28;20211;-73
2024/03/19 07:56:02;;;;;;;13.73;5.63;;;;;;;13.10;100.00;96471.00;4976075;28;20230;-73
2024/03/19 07:58:29;;;;;;;16.10;5.77;;;;;;;13.09;100.00;96471.19;4976946;28;20232;-73
2024/03/19 08:00:57;;;;;;;17.27;6.10;;;;;;;13.40;100.00;96470.72;4976694;28;20215;-73
2024/03/19 08:03:23;;;;;;;13.20;5.70;;;;;;;13.16;100.00;96472.91;4976829;28;20215;-73
2024/03/19 08:05:57;;;;;;;14.43;5.90;;;;;;;13.53;100.00;96473.50;4976812;28;20208;-73
2024/03/19 08:08:24;;;;;;;17.27;6.13;;;;;;;13.59;100.00;96475.41;4975814;28;20717;-73
2024/03/19 08:10:51;;;;;;;14.40;5.27;;;;;;;13.47;100.00;96470.78;4976311;28;20199;-73
2024/03/19 08:13:17;;;;;;;15.37;6.53;;;;;;;13.53;100.00;96473.50;4976456;28;20380;-73
2024/03/19 08:15:44;;;;;;;18.50;6.50;;;;;;;13.81;100.00;96474.38;4976711;28;20839;-74
2024/03/19 08:18:12;;;;;;;13.80;5.73;;;;;;;14.04;100.00;96470.47;4975294;28;20316;-73
2024/03/19 08:20:38;;;;;;;15.27;6.30;;;;;;;13.71;100.00;96473.88;4976041;28;20254;-73
2024/03/19 08:23:05;;;;;;;13.90;5.67;;;;;;;13.68;100.00;96474.25;4975461;28;20199;-74
2024/03/19 08:25:33;;;;;;;15.43;5.60;;;;;;;14.63;100.00;96469.88;4975480;28;20207;-73
2024/03/19 08:27:59;;;;;;;14.03;5.67;;;;;;;14.67;100.00;96472.94;4974407;28;20234;-74
2024/03/19 08:30:26;;;;;;;12.50;4.97;;;;;;;14.80;100.00;96478.31;4976192;28;20211;-73
2024/03/19 08:32:54;;;;;;;11.70;5.25;;;;;;;14.38;100.00;96490.94;4975731;28;20282;-73
2024/03/19 08:35:21;;;;;;;17.70;5.67;;;;;;;14.26;100.00;96497.78;4976086;28;20573;-74
2024/03/19 08:37:48;;;;;;;14.43;5.63;;;;;;;13.90;100.00;96491.75;4974753;28;20230;-74
2024/03/19 08:40:16;;;;;;;13.90;5.30;;;;;;;14.29;100.00;96497.38;4975600;28;20249;-73
2024/03/19 08:42:42;;;;;;;10.57;4.83;;;;;;;14.48;100.00;96488.75;4976296;28;20203;-73
2024/03/19 08:45:10;;;;;;;18.20;5.43;;;;;;;14.58;100.00;96497.19;4976079;28;20215;-74
2024/03/19 08:47:39;;;;;;;13.90;5.78;;;;;;;14.64;100.00;96495.38;4975329;28;20227;-73
2024/03/19 08:50:07;;;;;;;12.52;4.30;;;;;;;14.65;100.00;96494.38;4975297;28;20208;-73
2024/03/19 08:52:35;;;;;;;12.33;4.70;;;;;;;14.58;100.00;96498.00;4976591;28;20211;-73
2024/03/19 08:55:02;;;;;;;13.67;5.33;;;;;;;14.94;100.00;96499.44;4975994;28;20221;-73
2024/03/19 08:57:28;;;;;;;12.97;4.83;;;;;;;14.71;100.00;96498.06;4975461;28;20237;-73
2024/03/19 08:59:55;;;;;;;14.03;5.37;;;;;;;15.18;100.00;96496.25;4974907;28;20215;-73
2024/03/19 09:02:22;;;;;;;12.07;4.65;;;;;;;15.17;100.00;96505.22;4975586;28;20302;-73
2024/03/19 09:04:48;;;;;;;14.67;4.83;;;;;;;14.98;100.00;96499.84;4974965;28;20217;-73
2024/03/19 09:07:15;;;;;;;11.35;3.92;;;;;;;14.43;100.00;96502.59;4974759;28;21045;-73
2024/03/19 09:09:45;;;;;;;10.18;4.75;;;;;;;15.11;100.00;96500.72;4975234;28;20219;-73
2024/03/19 09:12:11;;;;;;;11.60;4.80;;;;;;;15.09;100.00;96497.44;4974938;28;20280;-74
2024/03/19 09:14:38;;;;;;;13.13;4.78;;;;;;;15.42;100.00;96495.75;4973737;28;21071;-74
2024/03/19 09:17:05;;;;;;;14.88;5.22;;;;;;;15.80;100.00;96496.88;4973505;28;20227;-74
2024/03/19 09:19:39;;;;;;;14.65;5.20;;;;;;;16.06;100.00;96503.84;4976149;28;20233;-75
2024/03/19 09:22:05;;;;;;;15.75;4.07;;;;;;;16.02;100.00;96507.91;4974584;28;20293;-74
2024/03/19 09:24:32;;;;;;;10.95;3.72;;;;;;;15.56;100.00;96506.19;4975583;28;20211;-73
2024/03/19 09:27:02;;;;;;;12.63;4.97;;;;;;;15.10;100.00;96508.88;4973832;28;20590;-73
2024/03/19 09:29:30;;;;;;;9.20;3.78;;;;;;;15.40;100.00;96511.06;4975774;28;20200;-74
2024/03/19 09:31:57;;;;;;;10.13;4.50;;;;;;;15.73;100.00;96502.13;4974647;28;20630;-73
2024/03/19 09:34:23;;;;;;;10.88;3.70;;;;;;;15.49;100.00;96505.38;4975474;28;20207;-74
2024/03/19 09:36:50;;;;;;;15.02;4.72;;;;;;;15.76;100.00;96511.53;4973715;28;20208;-73
2024/03/19 09:39:17;;;;;;;13.23;5.38;;;;;;;15.84;100.00;96511.38;4973917;28;20223;-73
2024/03/19 09:41:51;;;;;;;8.85;3.97;;;;;;;15.63;100.00;96509.69;4973914;28;20241;-73
2024/03/19 09:44:19;;;;;;;10.13;4.32;;;;;;;16.48;100.00;96513.25;4975339;28;20207;-74
2024/03/19 09:46:47;;;;;;;7.90;3.55;;;;;;;16.03;100.00;96511.38;4973746;28;20207;-74
2024/03/19 09:49:17;;;;;;;13.82;5.05;;;;;;;15.54;100.00;96502.09;4974618;28;20211;-73
2024/03/19 09:51:44;;;;;;;13.52;4.93;;;;;;;15.69;100.00;96516.03;4973764;28;20227;-73
2024/03/19 09:54:13;;;;;;;10.68;4.63;;;;;;;15.82;100.00;96510.75;4973256;28;20207;-73
2024/03/19 09:56:40;;;;;;;13.55;4.30;;;;;;;15.72;100.00;96511.16;4973525;28;20213;-73
2024/03/19 09:59:14;;;;;;;8.55;4.07;;;;;;;15.94;100.00;96513.41;4973836;28;20863;-74
2024/03/19 10:01:43;;;;;;;10.90;4.68;;;;;;;15.40;100.00;96511.06;4972829;28;20562;-73
2024/03/19 10:04:13;;;;;;;13.25;4.55;;;;;;;15.39;100.00;96512.09;4974387;28;20210;-73
2024/03/19 10:06:40;;;;;;;12.25;4.57;;;;;;;15.41;100.00;96510.03;4973458;28;21261;-73
2024/03/19 10:09:07;;;;;;;9.27;3.92;;;;;;;15.38;100.00;96510.44;4975282;28;20215;-73
2024/03/19 10:11:34;;;;;;;10.85;4.63;;;;;;;15.31;100.00;96505.13;4974383;28;20772;-73
2024/03/19 10:14:00;;;;;;;8.57;3.75;;;;;;;15.81;100.00;96494.00;4975571;28;20214;-72
2024/03/19 10:16:27;;;;;;;9.77;4.75;;;;;;;15.91;100.00;96499.72;4973557;28;20211;-74
2024/03/19 10:18:55;;;;;;;11.73;4.00;;;;;;;16.10;100.00;96499.75;4974434;28;20227;-74
2024/03/19 10:21:22;;;;;;;11.55;4.57;;;;;;;15.90;100.00;96498.91;4974728;28;20231;-70
2024/03/19 10:23:48;;;;;;;8.13;4.35;;;;;;;15.80;100.00;96500.31;4973826;28;20215;-73
2024/03/19 10:26:16;;;;;;;10.13;4.50;;;;;;;15.99;100.00;96497.69;4974368;28;20582;-72
2024/03/19 10:28:43;;;;;;;9.65;4.60;;;;;;;15.87;100.00;96496.66;4974276;28;20230;-71
2024/03/19 10:31:11;;;;;;;9.68;3.85;;;;;;;16.33;100.00;96494.84;4974330;28;20207;-72
2024/03/19 10:33:38;;;;;;;9.05;4.32;;;;;;;16.25;100.00;96492.34;4971698;28;20204;-72
2024/03/19 10:36:13;;;;;;;11.68;5.05;;;;;;;16.71;100.00;96501.13;4972083;28;20234;-72
2024/03/19 10:38:40;;;;;;;12.55;4.60;;;;;;;16.85;100.00;96484.09;4971772;28;20346;-73
2024/03/19 10:41:08;;;;;;;9.05;4.10;;;;;;;17.24;100.00;96490.09;4972496;28;20233;-72
2024/03/19 10:43:36;;;;;;;6.80;3.47;;;;;;;16.87;98.02;96488.19;4973228;28;20295;-74
2024/03/19 10:46:04;;;;;;;8.32;3.97;;;;;;;16.25;100.00;96497.66;4973530;28;20199;-73
2024/03/19 10:48:32;;;;;;;10.68;4.30;;;;;;;16.91;100.00;96485.94;4973015;28;20851;-73
2024/03/19 10:50:58;;;;;;;11.85;4.00;;;;;;;16.74;98.65;96495.41;4974350;28;20695;-73
2024/03/19 10:53:29;;;;;;;6.93;3.08;;;;;;;16.96;99.68;96486.13;4972880;28;20290;-74
2024/03/19 10:56:02;;;;;;;8.07;3.35;;;;;;;17.64;95.07;96486.22;4973698;28;20590;-72
2024/03/19 10:58:28;;;;;;;6.85;3.25;;;;;;;17.26;90.84;96486.22;4972976;28;20215;-73
2024/03/19 11:00:56;;;;;;;8.23;3.17;;;;;;;17.71;90.38;96480.63;4974557;28;20227;-72
2024/03/19 11:03:23;;;;;;;5.30;2.83;;;;;;;17.82;91.59;96487.97;4973793;28;20211;-73
2024/03/19 11:05:55;;;;;;;7.38;3.08;;;;;;;17.25;99.05;96489.91;4975044;28;20199;-72
2024/03/19 11:08:21;;;;;;;9.02;3.58;;;;;;;17.17;100.00;96482.16;4973863;28;21140;-73
2024/03/19 11:10:49;;;;;;;7.07;2.90;;;;;;;17.02;100.00;96485.25;4974499;28;20209;-73
2024/03/19 11:13:21;;;;;;;6.65;3.15;;;;;;;17.10;100.00;96484.00;4974048;28;20217;-72
2024/03/19 11:15:48;;;;;;;7.38;2.83;;;;;;;16.35;100.00;96486.66;4975350;28;20211;-73
2024/03/19 11:18:19;;;;;;;5.97;2.83;;;;;;;16.27;100.00;96490.34;4973843;28;20685;-72